sensor_id;sensor_type;location;lat;lon;timestamp;P1;durP1;ratioP1;P2;durP2;ratioP2
65567;SDS011;52211;50.154;8.682;2022-08-19T00:00:38;9.27;;;8.47;;
65567;SDS011;52211;50.154;8.682;2022-08-19T00:03:12;8.80;;;8.00;;
65567;SDS011;52211;50.154;8.682;2022-08-19T00:05:41;8.97;;;8.27;;
65567;SDS011;52211;50.154;8.682;2022-08-19T00:08:10;12.53;;;8.50;;
65567;SDS011;52211;50.154;8.682;2022-08-19T00:10:37;9.73;;;8.83;;
65567;SDS011;52211;50.154;8.682;2022-08-19T00:13:09;9.87;;;8.87;;
65567;SDS011;52211;50.154;8.682;2022-08-19T00:15:38;8.77;;;8.17;;
65567;SDS011;52211;50.154;8.682;2022-08-19T00:18:05;9.80;;;8.97;;
65567;SDS011;52211;50.154;8.682;2022-08-19T00:20:34;8.97;;;8.17;;
65567;SDS011;52211;50.154;8.682;2022-08-19T00:23:01;9.63;;;8.63;;
65567;SDS011;52211;50.154;8.682;2022-08-19T00:25:29;9.37;;;8.57;;
65567;SDS011;52211;50.154;8.682;2022-08-19T00:27:58;8.33;;;7.63;;
65567;SDS011;52211;50.154;8.682;2022-08-19T00:30:25;9.57;;;8.57;;
65567;SDS011;52211;50.154;8.682;2022-08-19T00:32:55;7.97;;;7.30;;
65567;SDS011;52211;50.154;8.682;2022-08-19T00:35:25;8.80;;;8.07;;
65567;SDS011;52211;50.154;8.682;2022-08-19T00:37:54;10.03;;;9.13;;
65567;SDS011;52211;50.154;8.682;2022-08-19T00:40:22;9.50;;;8.70;;
65567;SDS011;52211;50.154;8.682;2022-08-19T00:42:51;8.90;;;8.07;;
65567;SDS011;52211;50.154;8.682;2022-08-19T00:45:27;9.43;;;8.47;;
65567;SDS011;52211;50.154;8.682;2022-08-19T00:48:02;9.30;;;8.50;;
65567;SDS011;52211;50.154;8.682;2022-08-19T00:50:40;10.30;;;9.23;;
65567;SDS011;52211;50.154;8.682;2022-08-19T00:53:20;8.50;;;7.80;;
65567;SDS011;52211;50.154;8.682;2022-08-19T00:55:55;9.10;;;8.20;;
65567;SDS011;52211;50.154;8.682;2022-08-19T00:58:27;9.33;;;8.50;;
65567;SDS011;52211;50.154;8.682;2022-08-19T01:01:00;9.20;;;8.50;;
65567;SDS011;52211;50.154;8.682;2022-08-19T01:03:30;9.10;;;8.30;;
65567;SDS011;52211;50.154;8.682;2022-08-19T01:06:20;9.47;;;8.70;;
65567;SDS011;52211;50.154;8.682;2022-08-19T01:08:47;8.57;;;7.90;;
65567;SDS011;52211;50.154;8.682;2022-08-19T01:11:15;8.97;;;7.77;;
65567;SDS011;52211;50.154;8.682;2022-08-19T01:13:43;10.27;;;9.23;;
65567;SDS011;52211;50.154;8.682;2022-08-19T01:16:15;8.73;;;8.03;;
65567;SDS011;52211;50.154;8.682;2022-08-19T01:18:46;9.03;;;8.23;;
65567;SDS011;52211;50.154;8.682;2022-08-19T01:21:17;8.00;;;7.30;;
65567;SDS011;52211;50.154;8.682;2022-08-19T01:23:57;8.77;;;7.93;;
65567;SDS011;52211;50.154;8.682;2022-08-19T01:26:24;9.13;;;8.23;;
65567;SDS011;52211;50.154;8.682;2022-08-19T01:28:58;9.93;;;8.93;;
65567;SDS011;52211;50.154;8.682;2022-08-19T01:31:29;8.63;;;7.93;;
65567;SDS011;52211;50.154;8.682;2022-08-19T01:33:58;9.63;;;8.73;;
65567;SDS011;52211;50.154;8.682;2022-08-19T01:39:07;8.87;;;7.97;;
65567;SDS011;52211;50.154;8.682;2022-08-19T01:41:41;8.57;;;7.77;;
65567;SDS011;52211;50.154;8.682;2022-08-19T01:44:08;8.63;;;7.93;;
65567;SDS011;52211;50.154;8.682;2022-08-19T01:46:44;9.27;;;8.50;;
65567;SDS011;52211;50.154;8.682;2022-08-19T01:49:19;8.67;;;7.97;;
65567;SDS011;52211;50.154;8.682;2022-08-19T01:51:52;7.90;;;7.20;;
65567;SDS011;52211;50.154;8.682;2022-08-19T01:54:23;8.17;;;7.57;;
65567;SDS011;52211;50.154;8.682;2022-08-19T01:56:59;8.40;;;7.60;;
65567;SDS011;52211;50.154;8.682;2022-08-19T01:59:31;8.63;;;7.87;;
65567;SDS011;52211;50.154;8.682;2022-08-19T02:02:05;7.80;;;7.20;;
65567;SDS011;52211;50.154;8.682;2022-08-19T02:04:35;7.77;;;7.03;;
65567;SDS011;52211;50.154;8.682;2022-08-19T02:07:06;7.83;;;7.17;;
65567;SDS011;52211;50.154;8.682;2022-08-19T02:09:34;8.53;;;7.83;;
65567;SDS011;52211;50.154;8.682;2022-08-19T02:12:04;8.83;;;8.10;;
65567;SDS011;52211;50.154;8.682;2022-08-19T02:14:34;8.37;;;7.57;;
65567;SDS011;52211;50.154;8.682;2022-08-19T02:17:04;9.77;;;8.10;;
65567;SDS011;52211;50.154;8.682;2022-08-19T02:19:34;7.40;;;6.90;;
65567;SDS011;52211;50.154;8.682;2022-08-19T02:22:06;8.43;;;7.73;;
65567;SDS011;52211;50.154;8.682;2022-08-19T02:24:35;8.73;;;7.93;;
65567;SDS011;52211;50.154;8.682;2022-08-19T02:27:04;7.60;;;7.00;;
65567;SDS011;52211;50.154;8.682;2022-08-19T02:29:34;9.00;;;7.77;;
65567;SDS011;52211;50.154;8.682;2022-08-19T02:32:01;8.23;;;7.53;;
65567;SDS011;52211;50.154;8.682;2022-08-19T02:34:30;9.00;;;8.20;;
65567;SDS011;52211;50.154;8.682;2022-08-19T02:36:57;7.90;;;7.37;;
65567;SDS011;52211;50.154;8.682;2022-08-19T02:39:29;8.37;;;7.67;;
65567;SDS011;52211;50.154;8.682;2022-08-19T02:41:56;7.77;;;7.03;;
65567;SDS011;52211;50.154;8.682;2022-08-19T02:44:28;8.27;;;7.57;;
65567;SDS011;52211;50.154;8.682;2022-08-19T02:46:57;7.70;;;7.10;;
65567;SDS011;52211;50.154;8.682;2022-08-19T02:49:26;8.37;;;7.60;;
65567;SDS011;52211;50.154;8.682;2022-08-19T02:51:53;7.60;;;7.00;;
65567;SDS011;52211;50.154;8.682;2022-08-19T02:54:22;8.57;;;7.77;;
65567;SDS011;52211;50.154;8.682;2022-08-19T02:56:52;7.47;;;6.80;;
65567;SDS011;52211;50.154;8.682;2022-08-19T02:59:21;6.97;;;6.40;;
65567;SDS011;52211;50.154;8.682;2022-08-19T03:01:51;7.47;;;6.83;;
65567;SDS011;52211;50.154;8.682;2022-08-19T03:04:23;7.83;;;7.23;;
65567;SDS011;52211;50.154;8.682;2022-08-19T03:06:52;7.53;;;6.93;;
65567;SDS011;52211;50.154;8.682;2022-08-19T03:09:22;8.97;;;8.17;;
65567;SDS011;52211;50.154;8.682;2022-08-19T03:11:54;7.63;;;6.83;;
65567;SDS011;52211;50.154;8.682;2022-08-19T03:14:21;8.83;;;8.13;;
65567;SDS011;52211;50.154;8.682;2022-08-19T03:16:50;7.50;;;6.90;;
65567;SDS011;52211;50.154;8.682;2022-08-19T03:19:20;7.37;;;6.77;;
65567;SDS011;52211;50.154;8.682;2022-08-19T03:21:50;7.83;;;7.20;;
65567;SDS011;52211;50.154;8.682;2022-08-19T03:24:18;7.93;;;7.13;;
65567;SDS011;52211;50.154;8.682;2022-08-19T03:26:51;7.47;;;6.97;;
65567;SDS011;52211;50.154;8.682;2022-08-19T03:29:25;8.20;;;7.47;;
65567;SDS011;52211;50.154;8.682;2022-08-19T03:31:56;7.57;;;6.87;;
65567;SDS011;52211;50.154;8.682;2022-08-19T03:34:31;8.33;;;7.53;;
65567;SDS011;52211;50.154;8.682;2022-08-19T03:37:04;7.53;;;6.90;;
65567;SDS011;52211;50.154;8.682;2022-08-19T03:39:38;7.87;;;7.07;;
65567;SDS011;52211;50.154;8.682;2022-08-19T03:42:07;7.80;;;7.10;;
65567;SDS011;52211;50.154;8.682;2022-08-19T03:44:55;7.67;;;6.87;;
65567;SDS011;52211;50.154;8.682;2022-08-19T03:47:24;7.77;;;7.07;;
65567;SDS011;52211;50.154;8.682;2022-08-19T03:49:53;7.93;;;7.33;;
65567;SDS011;52211;50.154;8.682;2022-08-19T03:52:20;7.17;;;6.57;;
65567;SDS011;52211;50.154;8.682;2022-08-19T03:54:52;7.53;;;6.93;;
65567;SDS011;52211;50.154;8.682;2022-08-19T03:57:21;7.57;;;7.07;;
65567;SDS011;52211;50.154;8.682;2022-08-19T03:59:59;7.37;;;6.67;;
65567;SDS011;52211;50.154;8.682;2022-08-19T04:02:39;8.10;;;7.40;;
65567;SDS011;52211;50.154;8.682;2022-08-19T04:05:26;7.67;;;7.07;;
65567;SDS011;52211;50.154;8.682;2022-08-19T04:07:56;7.83;;;7.13;;
65567;SDS011;52211;50.154;8.682;2022-08-19T04:10:27;7.33;;;6.63;;
65567;SDS011;52211;50.154;8.682;2022-08-19T04:12:56;6.97;;;6.30;;
65567;SDS011;52211;50.154;8.682;2022-08-19T04:15:25;7.20;;;6.60;;
65567;SDS011;52211;50.154;8.682;2022-08-19T04:17:52;7.60;;;6.97;;
65567;SDS011;52211;50.154;8.682;2022-08-19T04:20:24;7.50;;;6.97;;
65567;SDS011;52211;50.154;8.682;2022-08-19T04:22:50;8.17;;;7.57;;
65567;SDS011;52211;50.154;8.682;2022-08-19T04:25:18;8.03;;;7.33;;
65567;SDS011;52211;50.154;8.682;2022-08-19T04:27:44;8.00;;;7.20;;
65567;SDS011;52211;50.154;8.682;2022-08-19T04:30:13;8.10;;;7.30;;
65567;SDS011;52211;50.154;8.682;2022-08-19T04:32:40;8.27;;;7.47;;
65567;SDS011;52211;50.154;8.682;2022-08-19T04:35:09;8.43;;;7.73;;
65567;SDS011;52211;50.154;8.682;2022-08-19T04:37:45;7.40;;;6.77;;
65567;SDS011;52211;50.154;8.682;2022-08-19T04:40:16;8.33;;;7.53;;
65567;SDS011;52211;50.154;8.682;2022-08-19T04:43:02;8.63;;;7.93;;
65567;SDS011;52211;50.154;8.682;2022-08-19T04:45:31;8.27;;;7.57;;
65567;SDS011;52211;50.154;8.682;2022-08-19T04:48:11;8.10;;;7.40;;
65567;SDS011;52211;50.154;8.682;2022-08-19T04:50:54;8.03;;;7.43;;
65567;SDS011;52211;50.154;8.682;2022-08-19T04:53:29;9.33;;;8.63;;
65567;SDS011;52211;50.154;8.682;2022-08-19T04:56:07;8.27;;;7.50;;
65567;SDS011;52211;50.154;8.682;2022-08-19T04:58:43;7.93;;;7.33;;
65567;SDS011;52211;50.154;8.682;2022-08-19T05:01:12;8.77;;;7.97;;
65567;SDS011;52211;50.154;8.682;2022-08-19T05:03:44;7.40;;;6.80;;
65567;SDS011;52211;50.154;8.682;2022-08-19T05:06:12;7.83;;;7.33;;
65567;SDS011;52211;50.154;8.682;2022-08-19T05:08:43;9.70;;;8.90;;
65567;SDS011;52211;50.154;8.682;2022-08-19T05:11:14;9.90;;;9.00;;
65567;SDS011;52211;50.154;8.682;2022-08-19T05:13:51;9.10;;;8.40;;
65567;SDS011;52211;50.154;8.682;2022-08-19T05:16:22;8.70;;;8.00;;
65567;SDS011;52211;50.154;8.682;2022-08-19T05:18:52;8.57;;;7.87;;
65567;SDS011;52211;50.154;8.682;2022-08-19T05:21:40;8.60;;;7.83;;
65567;SDS011;52211;50.154;8.682;2022-08-19T05:24:27;7.83;;;7.23;;
65567;SDS011;52211;50.154;8.682;2022-08-19T05:27:00;7.20;;;6.70;;
65567;SDS011;52211;50.154;8.682;2022-08-19T05:29:29;8.10;;;7.47;;
65567;SDS011;52211;50.154;8.682;2022-08-19T05:32:02;8.10;;;7.50;;
65567;SDS011;52211;50.154;8.682;2022-08-19T05:34:34;8.33;;;7.73;;
65567;SDS011;52211;50.154;8.682;2022-08-19T05:37:02;8.17;;;7.57;;
65567;SDS011;52211;50.154;8.682;2022-08-19T05:39:32;8.97;;;8.17;;
65567;SDS011;52211;50.154;8.682;2022-08-19T05:42:05;7.57;;;6.97;;
65567;SDS011;52211;50.154;8.682;2022-08-19T05:44:37;7.57;;;6.87;;
65567;SDS011;52211;50.154;8.682;2022-08-19T05:47:15;8.13;;;7.43;;
65567;SDS011;52211;50.154;8.682;2022-08-19T05:49:46;8.07;;;7.47;;
65567;SDS011;52211;50.154;8.682;2022-08-19T05:52:16;8.20;;;7.47;;
65567;SDS011;52211;50.154;8.682;2022-08-19T05:54:44;7.17;;;6.63;;
65567;SDS011;52211;50.154;8.682;2022-08-19T05:57:19;7.30;;;6.80;;
65567;SDS011;52211;50.154;8.682;2022-08-19T05:59:48;7.17;;;6.67;;
65567;SDS011;52211;50.154;8.682;2022-08-19T06:02:27;7.77;;;7.17;;
65567;SDS011;52211;50.154;8.682;2022-08-19T06:04:56;8.07;;;7.40;;
65567;SDS011;52211;50.154;8.682;2022-08-19T06:07:24;7.93;;;7.23;;
65567;SDS011;52211;50.154;8.682;2022-08-19T06:09:51;7.60;;;7.00;;
65567;SDS011;52211;50.154;8.682;2022-08-19T06:12:26;7.07;;;6.57;;
65567;SDS011;52211;50.154;8.682;2022-08-19T06:15:02;7.70;;;7.10;;
65567;SDS011;52211;50.154;8.682;2022-08-19T06:17:39;7.47;;;6.97;;
65567;SDS011;52211;50.154;8.682;2022-08-19T06:20:09;8.00;;;7.30;;
65567;SDS011;52211;50.154;8.682;2022-08-19T06:22:41;7.57;;;7.03;;
65567;SDS011;52211;50.154;8.682;2022-08-19T06:25:15;7.27;;;6.77;;
65567;SDS011;52211;50.154;8.682;2022-08-19T06:27:43;6.40;;;5.80;;
65567;SDS011;52211;50.154;8.682;2022-08-19T06:30:32;6.57;;;6.03;;
65567;SDS011;52211;50.154;8.682;2022-08-19T06:32:59;6.20;;;5.73;;
65567;SDS011;52211;50.154;8.682;2022-08-19T06:35:28;6.83;;;6.33;;
65567;SDS011;52211;50.154;8.682;2022-08-19T06:37:55;6.60;;;5.77;;
65567;SDS011;52211;50.154;8.682;2022-08-19T06:40:27;6.70;;;6.13;;
65567;SDS011;52211;50.154;8.682;2022-08-19T06:43:00;6.47;;;6.03;;
65567;SDS011;52211;50.154;8.682;2022-08-19T06:45:32;6.37;;;5.87;;
65567;SDS011;52211;50.154;8.682;2022-08-19T06:48:04;5.87;;;5.47;;
65567;SDS011;52211;50.154;8.682;2022-08-19T06:50:36;6.27;;;5.67;;
65567;SDS011;52211;50.154;8.682;2022-08-19T06:53:06;5.60;;;5.10;;
65567;SDS011;52211;50.154;8.682;2022-08-19T06:55:35;6.10;;;5.60;;
65567;SDS011;52211;50.154;8.682;2022-08-19T06:58:04;5.70;;;5.30;;
65567;SDS011;52211;50.154;8.682;2022-08-19T07:00:31;5.33;;;5.03;;
65567;SDS011;52211;50.154;8.682;2022-08-19T07:03:02;5.60;;;5.20;;
65567;SDS011;52211;50.154;8.682;2022-08-19T07:05:38;6.10;;;5.60;;
65567;SDS011;52211;50.154;8.682;2022-08-19T07:08:10;5.90;;;5.40;;
65567;SDS011;52211;50.154;8.682;2022-08-19T07:10:44;5.83;;;5.43;;
65567;SDS011;52211;50.154;8.682;2022-08-19T07:13:12;5.70;;;5.27;;
65567;SDS011;52211;50.154;8.682;2022-08-19T07:15:43;6.40;;;6.00;;
65567;SDS011;52211;50.154;8.682;2022-08-19T07:18:12;5.47;;;5.07;;
65567;SDS011;52211;50.154;8.682;2022-08-19T07:20:44;6.00;;;5.50;;
65567;SDS011;52211;50.154;8.682;2022-08-19T07:23:14;5.80;;;5.30;;
65567;SDS011;52211;50.154;8.682;2022-08-19T07:25:43;5.87;;;5.47;;
65567;SDS011;52211;50.154;8.682;2022-08-19T07:28:18;6.27;;;5.67;;
65567;SDS011;52211;50.154;8.682;2022-08-19T07:30:50;5.37;;;4.97;;
65567;SDS011;52211;50.154;8.682;2022-08-19T07:33:20;5.60;;;5.20;;
65567;SDS011;52211;50.154;8.682;2022-08-19T07:35:47;6.00;;;5.50;;
65567;SDS011;52211;50.154;8.682;2022-08-19T07:38:16;5.80;;;5.40;;
65567;SDS011;52211;50.154;8.682;2022-08-19T07:40:43;4.80;;;4.50;;
65567;SDS011;52211;50.154;8.682;2022-08-19T07:43:12;5.40;;;5.07;;
65567;SDS011;52211;50.154;8.682;2022-08-19T07:45:43;5.17;;;4.87;;
65567;SDS011;52211;50.154;8.682;2022-08-19T07:48:11;5.70;;;5.30;;
65567;SDS011;52211;50.154;8.682;2022-08-19T07:50:38;5.63;;;5.23;;
65567;SDS011;52211;50.154;8.682;2022-08-19T07:53:07;5.43;;;5.13;;
65567;SDS011;52211;50.154;8.682;2022-08-19T07:55:34;5.40;;;4.97;;
65567;SDS011;52211;50.154;8.682;2022-08-19T07:58:09;5.17;;;4.87;;
65567;SDS011;52211;50.154;8.682;2022-08-19T08:00:44;5.00;;;4.70;;
65567;SDS011;52211;50.154;8.682;2022-08-19T08:03:15;5.00;;;4.70;;
65567;SDS011;52211;50.154;8.682;2022-08-19T08:05:45;5.00;;;4.60;;
65567;SDS011;52211;50.154;8.682;2022-08-19T08:08:32;4.83;;;4.53;;
65567;SDS011;52211;50.154;8.682;2022-08-19T08:11:19;5.23;;;4.83;;
65567;SDS011;52211;50.154;8.682;2022-08-19T08:13:49;5.20;;;4.87;;
65567;SDS011;52211;50.154;8.682;2022-08-19T08:16:29;6.43;;;5.83;;
65567;SDS011;52211;50.154;8.682;2022-08-19T08:19:04;5.73;;;5.30;;
65567;SDS011;52211;50.154;8.682;2022-08-19T08:21:50;5.17;;;4.87;;
65567;SDS011;52211;50.154;8.682;2022-08-19T08:24:21;5.00;;;4.70;;
65567;SDS011;52211;50.154;8.682;2022-08-19T08:26:54;5.53;;;5.13;;
65567;SDS011;52211;50.154;8.682;2022-08-19T08:29:36;5.27;;;4.97;;
65567;SDS011;52211;50.154;8.682;2022-08-19T08:32:08;5.30;;;4.97;;
65567;SDS011;52211;50.154;8.682;2022-08-19T08:34:40;4.43;;;4.23;;
65567;SDS011;52211;50.154;8.682;2022-08-19T08:37:17;5.50;;;5.13;;
65567;SDS011;52211;50.154;8.682;2022-08-19T08:39:44;5.20;;;4.90;;
65567;SDS011;52211;50.154;8.682;2022-08-19T08:42:24;5.27;;;4.87;;
65567;SDS011;52211;50.154;8.682;2022-08-19T08:45:11;4.37;;;4.17;;
65567;SDS011;52211;50.154;8.682;2022-08-19T08:47:44;4.67;;;4.43;;
65567;SDS011;52211;50.154;8.682;2022-08-19T08:52:55;4.23;;;4.03;;
65567;SDS011;52211;50.154;8.682;2022-08-19T08:55:27;4.87;;;4.57;;
65567;SDS011;52211;50.154;8.682;2022-08-19T08:58:06;4.53;;;4.23;;
65567;SDS011;52211;50.154;8.682;2022-08-19T09:00:48;4.83;;;4.53;;
65567;SDS011;52211;50.154;8.682;2022-08-19T09:03:21;4.60;;;4.30;;
65567;SDS011;52211;50.154;8.682;2022-08-19T09:06:01;4.33;;;4.03;;
65567;SDS011;52211;50.154;8.682;2022-08-19T09:17:17;5.30;;;4.80;;
65567;SDS011;52211;50.154;8.682;2022-08-19T09:22:27;5.43;;;4.93;;
65567;SDS011;52211;50.154;8.682;2022-08-19T09:24:55;5.10;;;4.70;;
65567;SDS011;52211;50.154;8.682;2022-08-19T09:27:25;5.00;;;4.70;;
65567;SDS011;52211;50.154;8.682;2022-08-19T09:30:12;5.23;;;4.87;;
65567;SDS011;52211;50.154;8.682;2022-08-19T09:32:51;4.90;;;4.60;;
65567;SDS011;52211;50.154;8.682;2022-08-19T09:35:24;5.27;;;4.77;;
65567;SDS011;52211;50.154;8.682;2022-08-19T09:37:56;5.10;;;4.80;;
65567;SDS011;52211;50.154;8.682;2022-08-19T09:40:28;4.97;;;4.67;;
65567;SDS011;52211;50.154;8.682;2022-08-19T09:43:03;5.03;;;4.73;;
65567;SDS011;52211;50.154;8.682;2022-08-19T09:45:38;5.20;;;4.80;;
65567;SDS011;52211;50.154;8.682;2022-08-19T09:48:05;4.50;;;4.20;;
65567;SDS011;52211;50.154;8.682;2022-08-19T09:50:34;5.00;;;4.70;;
65567;SDS011;52211;50.154;8.682;2022-08-19T09:53:17;5.37;;;5.07;;
65567;SDS011;52211;50.154;8.682;2022-08-19T09:55:44;6.10;;;5.60;;
65567;SDS011;52211;50.154;8.682;2022-08-19T09:58:14;6.00;;;5.40;;
65567;SDS011;52211;50.154;8.682;2022-08-19T10:00:51;6.03;;;5.60;;
65567;SDS011;52211;50.154;8.682;2022-08-19T10:03:19;5.33;;;4.97;;
65567;SDS011;52211;50.154;8.682;2022-08-19T10:06:01;5.40;;;5.00;;
65567;SDS011;52211;50.154;8.682;2022-08-19T10:08:42;5.10;;;4.80;;
65567;SDS011;52211;50.154;8.682;2022-08-19T10:11:15;5.50;;;5.10;;
65567;SDS011;52211;50.154;8.682;2022-08-19T10:14:04;5.43;;;5.13;;
65567;SDS011;52211;50.154;8.682;2022-08-19T10:16:33;5.97;;;5.47;;
65567;SDS011;52211;50.154;8.682;2022-08-19T10:19:08;6.10;;;5.60;;
65567;SDS011;52211;50.154;8.682;2022-08-19T10:21:35;6.10;;;5.60;;
65567;SDS011;52211;50.154;8.682;2022-08-19T10:24:08;5.23;;;4.90;;
65567;SDS011;52211;50.154;8.682;2022-08-19T10:26:36;5.80;;;5.30;;
65567;SDS011;52211;50.154;8.682;2022-08-19T10:29:10;5.37;;;5.07;;
65567;SDS011;52211;50.154;8.682;2022-08-19T10:31:37;6.53;;;5.97;;
65567;SDS011;52211;50.154;8.682;2022-08-19T10:34:26;10.03;;;9.03;;
65567;SDS011;52211;50.154;8.682;2022-08-19T10:36:56;8.50;;;7.30;;
65567;SDS011;52211;50.154;8.682;2022-08-19T10:39:30;7.67;;;7.07;;
65567;SDS011;52211;50.154;8.682;2022-08-19T10:42:08;8.40;;;7.70;;
65567;SDS011;52211;50.154;8.682;2022-08-19T10:44:40;7.20;;;6.73;;
65567;SDS011;52211;50.154;8.682;2022-08-19T10:47:07;7.93;;;7.23;;
65567;SDS011;52211;50.154;8.682;2022-08-19T10:49:52;8.17;;;7.57;;
65567;SDS011;52211;50.154;8.682;2022-08-19T10:52:40;7.17;;;6.57;;
65567;SDS011;52211;50.154;8.682;2022-08-19T10:55:16;7.10;;;6.53;;
65567;SDS011;52211;50.154;8.682;2022-08-19T10:58:14;7.33;;;6.83;;
65567;SDS011;52211;50.154;8.682;2022-08-19T11:00:55;6.93;;;6.47;;
65567;SDS011;52211;50.154;8.682;2022-08-19T11:03:26;7.43;;;6.83;;
65567;SDS011;52211;50.154;8.682;2022-08-19T11:06:02;7.37;;;6.67;;
65567;SDS011;52211;50.154;8.682;2022-08-19T11:08:34;6.87;;;6.43;;
65567;SDS011;52211;50.154;8.682;2022-08-19T11:11:04;7.07;;;6.63;;
65567;SDS011;52211;50.154;8.682;2022-08-19T11:13:35;6.87;;;6.37;;
65567;SDS011;52211;50.154;8.682;2022-08-19T11:16:08;8.13;;;7.47;;
65567;SDS011;52211;50.154;8.682;2022-08-19T11:18:41;7.77;;;7.17;;
65567;SDS011;52211;50.154;8.682;2022-08-19T11:23:49;6.80;;;6.40;;
65567;SDS011;52211;50.154;8.682;2022-08-19T11:26:20;7.40;;;6.80;;
65567;SDS011;52211;50.154;8.682;2022-08-19T11:28:49;7.13;;;6.63;;
65567;SDS011;52211;50.154;8.682;2022-08-19T11:31:22;7.30;;;6.80;;
65567;SDS011;52211;50.154;8.682;2022-08-19T11:33:58;7.20;;;6.70;;
65567;SDS011;52211;50.154;8.682;2022-08-19T11:36:30;7.80;;;7.30;;
65567;SDS011;52211;50.154;8.682;2022-08-19T11:39:00;8.27;;;7.73;;
65567;SDS011;52211;50.154;8.682;2022-08-19T11:41:29;6.97;;;6.57;;
65567;SDS011;52211;50.154;8.682;2022-08-19T11:43:58;7.83;;;7.13;;
65567;SDS011;52211;50.154;8.682;2022-08-19T11:46:29;8.03;;;7.33;;
65567;SDS011;52211;50.154;8.682;2022-08-19T11:48:59;8.10;;;7.50;;
65567;SDS011;52211;50.154;8.682;2022-08-19T11:51:29;8.50;;;7.70;;
65567;SDS011;52211;50.154;8.682;2022-08-19T11:53:57;7.93;;;7.40;;
65567;SDS011;52211;50.154;8.682;2022-08-19T11:56:28;7.67;;;7.17;;
65567;SDS011;52211;50.154;8.682;2022-08-19T11:58:55;8.77;;;7.90;;
65567;SDS011;52211;50.154;8.682;2022-08-19T12:01:23;7.50;;;6.90;;
65567;SDS011;52211;50.154;8.682;2022-08-19T12:03:53;7.80;;;7.30;;
65567;SDS011;52211;50.154;8.682;2022-08-19T12:06:24;6.80;;;6.40;;
65567;SDS011;52211;50.154;8.682;2022-08-19T12:08:58;6.37;;;5.97;;
65567;SDS011;52211;50.154;8.682;2022-08-19T12:11:31;7.30;;;6.80;;
65567;SDS011;52211;50.154;8.682;2022-08-19T12:14:00;7.20;;;6.70;;
65567;SDS011;52211;50.154;8.682;2022-08-19T12:16:29;6.77;;;6.27;;
65567;SDS011;52211;50.154;8.682;2022-08-19T12:18:59;6.77;;;6.37;;
65567;SDS011;52211;50.154;8.682;2022-08-19T12:21:31;7.03;;;6.53;;
65567;SDS011;52211;50.154;8.682;2022-08-19T12:24:03;6.80;;;6.40;;
65567;SDS011;52211;50.154;8.682;2022-08-19T12:26:33;7.10;;;6.60;;
65567;SDS011;52211;50.154;8.682;2022-08-19T12:29:18;7.57;;;6.97;;
65567;SDS011;52211;50.154;8.682;2022-08-19T12:31:56;7.00;;;6.60;;
65567;SDS011;52211;50.154;8.682;2022-08-19T12:34:31;7.07;;;6.57;;
65567;SDS011;52211;50.154;8.682;2022-08-19T12:37:02;6.77;;;6.37;;
65567;SDS011;52211;50.154;8.682;2022-08-19T12:39:37;6.83;;;6.43;;
65567;SDS011;52211;50.154;8.682;2022-08-19T12:42:08;8.10;;;7.40;;
65567;SDS011;52211;50.154;8.682;2022-08-19T12:44:38;7.13;;;6.63;;
65567;SDS011;52211;50.154;8.682;2022-08-19T12:47:10;7.07;;;6.65;;
65567;SDS011;52211;50.154;8.682;2022-08-19T12:49:40;6.57;;;6.18;;
65567;SDS011;52211;50.154;8.682;2022-08-19T12:52:23;7.13;;;6.53;;
65567;SDS011;52211;50.154;8.682;2022-08-19T12:54:53;7.47;;;6.97;;
65567;SDS011;52211;50.154;8.682;2022-08-19T12:57:25;6.85;;;6.38;;
65567;SDS011;52211;50.154;8.682;2022-08-19T13:00:03;7.70;;;7.20;;
65567;SDS011;52211;50.154;8.682;2022-08-19T13:02:41;7.57;;;7.15;;
65567;SDS011;52211;50.154;8.682;2022-08-19T13:05:15;7.10;;;6.60;;
65567;SDS011;52211;50.154;8.682;2022-08-19T13:07:49;7.27;;;6.77;;
65567;SDS011;52211;50.154;8.682;2022-08-19T13:10:30;6.30;;;5.90;;
65567;SDS011;52211;50.154;8.682;2022-08-19T13:13:03;6.20;;;5.80;;
65567;SDS011;52211;50.154;8.682;2022-08-19T13:15:39;6.87;;;6.47;;
65567;SDS011;52211;50.154;8.682;2022-08-19T13:18:11;6.03;;;5.63;;
65567;SDS011;52211;50.154;8.682;2022-08-19T13:20:41;6.00;;;5.60;;
65567;SDS011;52211;50.154;8.682;2022-08-19T13:23:18;5.67;;;5.37;;
65567;SDS011;52211;50.154;8.682;2022-08-19T13:25:45;5.57;;;5.20;;
65567;SDS011;52211;50.154;8.682;2022-08-19T13:28:23;6.03;;;5.70;;
65567;SDS011;52211;50.154;8.682;2022-08-19T13:30:54;6.90;;;6.32;;
65567;SDS011;52211;50.154;8.682;2022-08-19T13:33:39;6.40;;;6.00;;
65567;SDS011;52211;50.154;8.682;2022-08-19T13:36:06;6.47;;;6.07;;
65567;SDS011;52211;50.154;8.682;2022-08-19T13:38:36;6.30;;;5.80;;
65567;SDS011;52211;50.154;8.682;2022-08-19T13:41:07;5.90;;;5.50;;
65567;SDS011;52211;50.154;8.682;2022-08-19T13:43:39;5.60;;;5.30;;
65567;SDS011;52211;50.154;8.682;2022-08-19T13:46:08;5.50;;;5.10;;
65567;SDS011;52211;50.154;8.682;2022-08-19T13:48:40;5.33;;;5.03;;
65567;SDS011;52211;50.154;8.682;2022-08-19T13:51:10;5.63;;;5.33;;
65567;SDS011;52211;50.154;8.682;2022-08-19T13:53:42;5.17;;;4.93;;
65567;SDS011;52211;50.154;8.682;2022-08-19T13:56:16;5.60;;;5.30;;
65567;SDS011;52211;50.154;8.682;2022-08-19T13:58:51;5.47;;;5.17;;
65567;SDS011;52211;50.154;8.682;2022-08-19T14:01:20;5.00;;;4.80;;
65567;SDS011;52211;50.154;8.682;2022-08-19T14:03:50;5.13;;;4.83;;
65567;SDS011;52211;50.154;8.682;2022-08-19T14:06:19;5.20;;;4.90;;
65567;SDS011;52211;50.154;8.682;2022-08-19T14:08:49;5.37;;;5.07;;
65567;SDS011;52211;50.154;8.682;2022-08-19T14:11:18;4.67;;;4.43;;
65567;SDS011;52211;50.154;8.682;2022-08-19T14:13:45;5.47;;;5.07;;
65567;SDS011;52211;50.154;8.682;2022-08-19T14:16:13;4.87;;;4.67;;
65567;SDS011;52211;50.154;8.682;2022-08-19T14:18:43;5.10;;;4.90;;
65567;SDS011;52211;50.154;8.682;2022-08-19T14:21:16;5.37;;;5.07;;
65567;SDS011;52211;50.154;8.682;2022-08-19T14:23:49;4.47;;;4.27;;
65567;SDS011;52211;50.154;8.682;2022-08-19T14:26:21;4.60;;;4.40;;
65567;SDS011;52211;50.154;8.682;2022-08-19T14:28:50;4.90;;;4.60;;
65567;SDS011;52211;50.154;8.682;2022-08-19T14:31:23;4.63;;;4.33;;
65567;SDS011;52211;50.154;8.682;2022-08-19T14:33:55;4.40;;;4.20;;
65567;SDS011;52211;50.154;8.682;2022-08-19T14:36:22;5.13;;;4.83;;
65567;SDS011;52211;50.154;8.682;2022-08-19T14:38:49;5.03;;;4.73;;
65567;SDS011;52211;50.154;8.682;2022-08-19T14:41:20;4.80;;;4.60;;
65567;SDS011;52211;50.154;8.682;2022-08-19T14:43:49;4.77;;;4.57;;
65567;SDS011;52211;50.154;8.682;2022-08-19T14:46:20;4.83;;;4.50;;
65567;SDS011;52211;50.154;8.682;2022-08-19T14:48:57;4.73;;;4.53;;
65567;SDS011;52211;50.154;8.682;2022-08-19T14:51:25;4.93;;;4.63;;
65567;SDS011;52211;50.154;8.682;2022-08-19T14:53:54;4.47;;;4.27;;
65567;SDS011;52211;50.154;8.682;2022-08-19T14:56:23;4.73;;;4.53;;
65567;SDS011;52211;50.154;8.682;2022-08-19T14:58:55;5.30;;;5.00;;
65567;SDS011;52211;50.154;8.682;2022-08-19T15:01:27;4.80;;;4.53;;
65567;SDS011;52211;50.154;8.682;2022-08-19T15:03:57;6.45;;;6.07;;
65567;SDS011;52211;50.154;8.682;2022-08-19T15:06:28;5.68;;;5.38;;
65567;SDS011;52211;50.154;8.682;2022-08-19T15:08:56;5.13;;;4.82;;
65567;SDS011;52211;50.154;8.682;2022-08-19T15:11:29;5.15;;;4.82;;
65567;SDS011;52211;50.154;8.682;2022-08-19T15:14:01;5.22;;;5.03;;
65567;SDS011;52211;50.154;8.682;2022-08-19T15:16:31;4.60;;;4.40;;
65567;SDS011;52211;50.154;8.682;2022-08-19T15:19:00;4.68;;;4.47;;
65567;SDS011;52211;50.154;8.682;2022-08-19T15:21:27;4.97;;;4.78;;
65567;SDS011;52211;50.154;8.682;2022-08-19T15:23:56;4.50;;;4.30;;
65567;SDS011;52211;50.154;8.682;2022-08-19T15:26:27;4.55;;;4.30;;
65567;SDS011;52211;50.154;8.682;2022-08-19T15:28:59;4.50;;;4.30;;
65567;SDS011;52211;50.154;8.682;2022-08-19T15:31:28;4.50;;;4.30;;
65567;SDS011;52211;50.154;8.682;2022-08-19T15:33:58;4.47;;;4.28;;
65567;SDS011;52211;50.154;8.682;2022-08-19T15:36:25;4.65;;;4.35;;